Time;durP1;ratioP1;P1;durP2;ratioP2;P2;SDS_P1;SDS_P2;PMS_P1;PMS_P2;Temp;Humidity;BMP_temperature;BMP_pressure;BME280_temperature;BME280_humidity;BME280_pressure;Samples;Min_cycle;Max_cycle;Signal;HPM_P1;HPM_P2
2023/04/28 00:01:58;;;;;;;;;;;14.30;99.90;;;;;;5040876;28;20342;-70
2023/04/28 00:04:24;;;;;;;;;;;14.30;99.90;;;;;;5041073;28;20008;-73
2023/04/28 00:06:50;;;;;;;;;;;14.30;99.90;;;;;;5045212;28;19948;-72
2023/04/28 00:09:15;;;;;;;;;;;14.20;99.90;;;;;;5041970;28;20007;-71
2023/04/28 00:11:43;;;;;;;;;;;14.30;99.90;;;;;;5052507;28;19913;-72
2023/04/28 00:14:08;;;;;;;;;;;14.20;99.90;;;;;;5041446;28;19913;-71
2023/04/28 00:16:34;;;;;;;;;;;14.20;99.90;;;;;;5039648;28;19921;-71
2023/04/28 00:19:00;;;;;;;;;;;14.20;99.90;;;;;;5050026;28;20306;-71
2023/04/28 00:21:26;;;;;;;;;;;14.20;99.90;;;;;;5040891;28;20002;-71
2023/04/28 00:23:52;;;;;;;;;;;14.20;99.90;;;;;;5051780;28;19913;-72
2023/04/28 00:26:17;;;;;;;;;;;14.20;99.90;;;;;;5039458;28;20367;-72
2023/04/28 00:28:43;;;;;;;;;;;14.10;99.90;;;;;;5047190;28;20327;-72
2023/04/28 00:31:10;;;;;;;;;;;14.10;99.90;;;;;;5039773;28;19913;-71
2023/04/28 00:33:36;;;;;;;;;;;14.10;99.90;;;;;;5045619;28;20403;-70
2023/04/28 00:36:01;;;;;;;;;;;14.10;99.90;;;;;;5039839;28;19921;-70
2023/04/28 00:38:27;;;;;;;;;;;14.10;99.90;;;;;;5040276;28;19959;-71
2023/04/28 00:40:53;;;;;;;;;;;14.10;99.90;;;;;;5043687;28;19920;-69
2023/04/28 00:43:18;;;;;;;;;;;14.10;99.90;;;;;;5041414;28;20011;-69
2023/04/28 00:45:44;;;;;;;;;;;14.10;99.90;;;;;;5038962;28;19913;-69
2023/04/28 00:48:10;;;;;;;;;;;14.10;99.90;;;;;;5040736;28;19924;-70
2023/04/28 00:50:36;;;;;;;;;;;14.00;99.90;;;;;;5045434;28;19913;-70
2023/04/28 00:53:01;;;;;;;;;;;14.00;99.90;;;;;;5041946;28;19959;-70
2023/04/28 00:55:30;;;;;;;;;;;14.00;99.90;;;;;;5044219;28;19917;-67
2023/04/28 00:57:56;;;;;;;;;;;14.00;99.90;;;;;;5044321;28;19913;-70
2023/04/28 01:00:22;;;;;;;;;;;14.00;99.90;;;;;;5041923;28;19919;-69
2023/04/28 01:02:49;;;;;;;;;;;14.00;99.90;;;;;;5039098;28;19913;-70
2023/04/28 01:05:15;;;;;;;;;;;14.00;99.90;;;;;;5040055;28;19913;-70
2023/04/28 01:07:41;;;;;;;;;;;14.00;99.90;;;;;;5046010;28;19962;-70
2023/04/28 01:10:19;;;;;;;;;;;14.00;99.90;;;;;;5040804;28;19913;-70
2023/04/28 01:12:45;;;;;;;;;;;14.00;99.90;;;;;;5050945;28;19920;-70
2023/04/28 01:15:17;;;;;;;;;;;14.00;99.90;;;;;;5040002;28;19913;-70
2023/04/28 01:17:44;;;;;;;;;;;13.90;99.90;;;;;;5045992;28;20011;-70
2023/04/28 01:20:10;;;;;;;;;;;13.90;99.90;;;;;;5040225;28;19913;-69
2023/04/28 01:22:35;;;;;;;;;;;13.90;99.90;;;;;;5044957;28;19920;-69
2023/04/28 01:25:02;;;;;;;;;;;13.90;99.90;;;;;;5041216;28;19913;-68
2023/04/28 01:27:28;;;;;;;;;;;14.00;99.90;;;;;;5051182;28;19920;-71
2023/04/28 01:29:54;;;;;;;;;;;14.00;99.90;;;;;;5042613;28;19913;-69
2023/04/28 01:32:19;;;;;;;;;;;14.00;99.90;;;;;;5040758;28;19994;-69
2023/04/28 01:34:46;;;;;;;;;;;14.00;99.90;;;;;;5051429;28;20015;-69
2023/04/28 01:37:11;;;;;;;;;;;14.00;99.90;;;;;;5040026;28;19921;-69
2023/04/28 01:39:37;;;;;;;;;;;14.00;99.90;;;;;;5037887;28;20384;-71
2023/04/28 01:42:03;;;;;;;;;;;14.00;99.90;;;;;;5039591;28;20432;-70
2023/04/28 01:44:28;;;;;;;;;;;14.00;99.90;;;;;;5043124;28;20335;-71
2023/04/28 01:46:54;;;;;;;;;;;13.90;99.90;;;;;;5051044;28;19919;-68
2023/04/28 01:49:19;;;;;;;;;;;13.90;99.90;;;;;;5033007;28;19920;-68
2023/04/28 01:51:45;;;;;;;;;;;13.90;99.90;;;;;;5044836;28;19913;-69
2023/04/28 01:54:10;;;;;;;;;;;13.90;99.90;;;;;;5039316;28;19920;-69
2023/04/28 01:56:36;;;;;;;;;;;13.90;99.90;;;;;;5037408;28;20318;-69
2023/04/28 01:59:01;;;;;;;;;;;14.00;99.90;;;;;;5039899;28;19940;-69
2023/04/28 02:01:27;;;;;;;;;;;14.00;99.90;;;;;;5043144;28;19920;-70
2023/04/28 02:03:53;;;;;;;;;;;13.90;99.90;;;;;;5038985;28;19935;-68
2023/04/28 02:06:19;;;;;;;;;;;14.00;99.90;;;;;;5038547;28;19962;-69
2023/04/28 02:08:45;;;;;;;;;;;14.00;99.90;;;;;;5045869;28;20000;-69
2023/04/28 02:11:10;;;;;;;;;;;14.00;99.90;;;;;;5035896;28;19912;-68
2023/04/28 02:13:36;;;;;;;;;;;14.00;99.90;;;;;;5037326;28;19921;-69
2023/04/28 02:16:01;;;;;;;;;;;13.90;99.90;;;;;;5039285;28;19928;-68
2023/04/28 02:18:27;;;;;;;;;;;13.90;99.90;;;;;;5042740;28;19920;-69
2023/04/28 02:20:52;;;;;;;;;;;13.90;99.90;;;;;;5050442;28;19916;-69
2023/04/28 02:23:18;;;;;;;;;;;13.90;99.90;;;;;;5040208;28;20349;-68
2023/04/28 02:25:43;;;;;;;;;;;13.80;99.90;;;;;;5038183;28;20388;-69
2023/04/28 02:28:09;;;;;;;;;;;13.90;99.90;;;;;;5038995;28;20395;-69
2023/04/28 02:30:34;;;;;;;;;;;13.80;99.90;;;;;;5043425;28;19912;-69
2023/04/28 02:33:00;;;;;;;;;;;13.80;99.90;;;;;;5037566;28;20008;-69
2023/04/28 02:35:26;;;;;;;;;;;13.70;99.90;;;;;;5038440;28;19917;-69
2023/04/28 02:37:51;;;;;;;;;;;13.70;99.90;;;;;;5042348;28;19917;-68
2023/04/28 02:40:17;;;;;;;;;;;13.70;99.90;;;;;;5039294;28;20365;-69
2023/04/28 02:42:42;;;;;;;;;;;13.70;99.90;;;;;;5036429;28;19917;-69
2023/04/28 02:45:08;;;;;;;;;;;13.70;99.90;;;;;;5048440;28;19924;-69
2023/04/28 02:47:34;;;;;;;;;;;13.70;99.90;;;;;;5037126;28;19924;-69
2023/04/28 02:49:59;;;;;;;;;;;13.70;99.90;;;;;;5045083;28;20021;-66
2023/04/28 02:52:25;;;;;;;;;;;13.70;99.90;;;;;;5033548;28;19913;-68
2023/04/28 02:54:53;;;;;;;;;;;13.70;99.90;;;;;;5042538;28;19913;-68
2023/04/28 02:57:19;;;;;;;;;;;13.70;99.90;;;;;;5037736;28;20342;-68
2023/04/28 02:59:45;;;;;;;;;;;13.70;99.90;;;;;;5036223;28;19919;-68
2023/04/28 03:02:11;;;;;;;;;;;13.70;99.90;;;;;;5048449;28;20011;-68
2023/04/28 03:04:37;;;;;;;;;;;13.70;99.90;;;;;;5036866;28;20004;-69
2023/04/28 03:07:02;;;;;;;;;;;13.60;99.90;;;;;;5038894;28;20328;-68
2023/04/28 03:09:28;;;;;;;;;;;13.70;99.90;;;;;;5042337;28;19912;-69
2023/04/28 03:11:53;;;;;;;;;;;13.60;99.90;;;;;;5041810;28;20005;-69
2023/04/28 03:14:19;;;;;;;;;;;13.60;99.90;;;;;;5039346;28;19956;-68
2023/04/28 03:16:45;;;;;;;;;;;13.60;99.90;;;;;;5035432;28;20343;-69
2023/04/28 03:19:10;;;;;;;;;;;13.60;99.90;;;;;;5037858;28;20329;-69
2023/04/28 03:21:36;;;;;;;;;;;13.60;99.90;;;;;;5043443;28;20340;-69
2023/04/28 03:24:01;;;;;;;;;;;13.50;99.90;;;;;;5039537;28;19913;-69
2023/04/28 03:26:27;;;;;;;;;;;13.50;99.90;;;;;;5041841;28;19913;-69
2023/04/28 03:28:53;;;;;;;;;;;13.50;99.90;;;;;;5043870;28;19935;-69
2023/04/28 03:31:18;;;;;;;;;;;13.50;99.90;;;;;;5042345;28;20795;-68
2023/04/28 03:33:45;;;;;;;;;;;13.50;99.90;;;;;;5053512;28;20280;-68
2023/04/28 03:36:11;;;;;;;;;;;13.50;99.90;;;;;;5041511;28;19917;-69
2023/04/28 03:38:37;;;;;;;;;;;13.50;99.90;;;;;;5037805;28;19913;-68
2023/04/28 03:41:03;;;;;;;;;;;13.50;99.90;;;;;;5048094;28;20372;-68
2023/04/28 03:43:28;;;;;;;;;;;13.50;99.90;;;;;;5037275;28;19976;-68
2023/04/28 03:45:54;;;;;;;;;;;13.40;99.90;;;;;;5045741;28;19913;-68
2023/04/28 03:48:19;;;;;;;;;;;13.40;99.90;;;;;;5045951;28;20464;-67
2023/04/28 03:50:45;;;;;;;;;;;13.40;99.90;;;;;;5036278;28;19913;-68
2023/04/28 03:53:10;;;;;;;;;;;13.40;99.90;;;;;;5047910;28;20012;-70
2023/04/28 03:55:37;;;;;;;;;;;13.40;99.90;;;;;;5037381;28;20012;-67
2023/04/28 03:58:02;;;;;;;;;;;13.30;99.90;;;;;;5037279;28;19923;-69
2023/04/28 04:00:28;;;;;;;;;;;13.30;99.90;;;;;;5041826;28;20281;-69
2023/04/28 04:02:54;;;;;;;;;;;13.40;99.90;;;;;;5037677;28;19913;-69
2023/04/28 04:05:19;;;;;;;;;;;13.40;99.90;;;;;;5038671;28;19924;-69
2023/04/28 04:07:45;;;;;;;;;;;13.40;99.90;;;;;;5047610;28;19913;-69
2023/04/28 04:10:10;;;;;;;;;;;13.40;99.90;;;;;;5041419;28;19913;-68
2023/04/28 04:12:36;;;;;;;;;;;13.40;99.90;;;;;;5045397;28;19913;-69
2023/04/28 04:15:02;;;;;;;;;;;13.40;99.90;;;;;;5039971;28;19912;-68
2023/04/28 04:17:28;;;;;;;;;;;13.30;99.90;;;;;;5040908;28;20002;-69
2023/04/28 04:19:53;;;;;;;;;;;13.30;99.90;;;;;;5044700;28;19913;-68
2023/04/28 04:22:19;;;;;;;;;;;13.30;99.90;;;;;;5042183;28;20366;-68
2023/04/28 04:24:44;;;;;;;;;;;13.30;99.90;;;;;;5052663;28;19920;-68
2023/04/28 04:27:10;;;;;;;;;;;13.30;99.90;;;;;;5040855;28;19936;-67
2023/04/28 04:29:36;;;;;;;;;;;13.30;99.90;;;;;;5039500;28;19919;-67
2023/04/28 04:32:01;;;;;;;;;;;13.20;99.90;;;;;;5048737;28;19913;-68
2023/04/28 04:34:27;;;;;;;;;;;13.20;99.90;;;;;;5040633;28;19913;-68
2023/04/28 04:36:52;;;;;;;;;;;13.20;99.90;;;;;;5044214;28;19971;-68
2023/04/28 04:39:18;;;;;;;;;;;13.20;99.90;;;;;;5041550;28;19970;-68
2023/04/28 04:41:43;;;;;;;;;;;13.20;99.90;;;;;;5051889;28;19994;-69
2023/04/28 04:44:09;;;;;;;;;;;13.20;99.90;;;;;;5040565;28;20007;-68
2023/04/28 04:46:35;;;;;;;;;;;13.20;99.90;;;;;;5052299;28;19924;-67
2023/04/28 04:49:00;;;;;;;;;;;13.20;99.90;;;;;;5034123;28;19988;-67
2023/04/28 04:51:26;;;;;;;;;;;13.20;99.90;;;;;;5048689;28;19913;-68
2023/04/28 04:53:52;;;;;;;;;;;13.20;99.90;;;;;;5039451;28;20430;-69
2023/04/28 04:56:18;;;;;;;;;;;13.20;99.90;;;;;;5049892;28;19925;-68
2023/04/28 04:58:43;;;;;;;;;;;13.20;99.90;;;;;;5037877;28;19913;-67
2023/04/28 05:01:09;;;;;;;;;;;13.20;99.90;;;;;;5040218;28;19967;-68
2023/04/28 05:03:34;;;;;;;;;;;13.20;99.90;;;;;;5044941;28;19975;-68
2023/04/28 05:06:01;;;;;;;;;;;13.20;99.90;;;;;;5033776;28;19913;-64
2023/04/28 05:08:27;;;;;;;;;;;13.20;99.90;;;;;;5048175;28;19913;-68
2023/04/28 05:10:53;;;;;;;;;;;13.20;99.90;;;;;;5038838;28;20287;-68
2023/04/28 05:13:18;;;;;;;;;;;13.20;99.90;;;;;;5039321;28;19924;-68
2023/04/28 05:15:44;;;;;;;;;;;13.30;99.90;;;;;;5045787;28;19917;-67
2023/04/28 05:18:10;;;;;;;;;;;13.30;99.90;;;;;;5039892;28;19974;-69
2023/04/28 05:20:36;;;;;;;;;;;13.30;99.90;;;;;;5038532;28;20276;-69
2023/04/28 05:23:02;;;;;;;;;;;13.30;99.90;;;;;;5045608;28;19920;-68
2023/04/28 05:25:27;;;;;;;;;;;13.20;99.90;;;;;;5047545;28;19913;-60
2023/04/28 05:27:53;;;;;;;;;;;13.20;99.90;;;;;;5038583;28;19960;-68
2023/04/28 05:30:19;;;;;;;;;;;13.30;99.90;;;;;;5038862;28;19917;-69
2023/04/28 05:32:45;;;;;;;;;;;13.20;99.90;;;;;;5045905;28;20356;-68
2023/04/28 05:35:10;;;;;;;;;;;13.30;99.90;;;;;;5039758;28;19913;-68
2023/04/28 05:37:37;;;;;;;;;;;13.40;99.90;;;;;;5044757;28;19924;-68
2023/04/28 05:40:02;;;;;;;;;;;13.30;99.90;;;;;;5048738;28;20337;-70
2023/04/28 05:42:28;;;;;;;;;;;13.30;99.90;;;;;;5034881;28;20395;-69
2023/04/28 05:44:54;;;;;;;;;;;13.30;99.90;;;;;;5051078;28;19944;-68
2023/04/28 05:47:20;;;;;;;;;;;13.30;99.90;;;;;;5038799;28;20433;-68
2023/04/28 05:49:45;;;;;;;;;;;13.30;99.90;;;;;;5044095;28;19913;-68
2023/04/28 05:52:11;;;;;;;;;;;13.30;99.90;;;;;;5039071;28;19919;-69
2023/04/28 05:54:36;;;;;;;;;;;13.30;99.90;;;;;;5050898;28;19913;-69
2023/04/28 05:57:02;;;;;;;;;;;13.40;99.90;;;;;;5038142;28;19921;-69
2023/04/28 05:59:29;;;;;;;;;;;13.40;99.90;;;;;;5038893;28;19913;-68
2023/04/28 06:01:55;;;;;;;;;;;13.40;99.90;;;;;;5046776;28;20326;-69
2023/04/28 06:04:20;;;;;;;;;;;13.50;99.90;;;;;;5046543;28;20011;-68
2023/04/28 06:06:46;;;;;;;;;;;13.60;99.90;;;;;;5037303;28;20266;-69
2023/04/28 06:09:11;;;;;;;;;;;13.50;99.90;;;;;;5048817;28;19913;-68
2023/04/28 06:11:37;;;;;;;;;;;13.60;99.90;;;;;;5037258;28;19909;-68
2023/04/28 06:14:02;;;;;;;;;;;13.70;99.90;;;;;;5046985;28;19971;-69
2023/04/28 06:16:28;;;;;;;;;;;13.70;99.90;;;;;;5038670;28;19921;-68
2023/04/28 06:18:54;;;;;;;;;;;13.70;99.90;;;;;;5042616;28;19917;-68
2023/04/28 06:21:20;;;;;;;;;;;13.70;99.90;;;;;;5039965;28;20576;-69
2023/04/28 06:23:45;;;;;;;;;;;13.70;99.90;;;;;;5036021;28;20404;-69
2023/04/28 06:26:11;;;;;;;;;;;13.70;99.90;;;;;;5039368;28;19949;-68
2023/04/28 06:28:37;;;;;;;;;;;13.70;99.90;;;;;;5049464;28;19913;-68
2023/04/28 06:31:02;;;;;;;;;;;13.60;99.90;;;;;;5040246;28;19917;-66
2023/04/28 06:33:28;;;;;;;;;;;13.80;99.90;;;;;;5042368;28;19999;-68
2023/04/28 06:35:53;;;;;;;;;;;13.70;99.90;;;;;;5034521;28;19963;-69
2023/04/28 06:38:19;;;;;;;;;;;13.70;99.90;;;;;;5047865;28;21297;-69
2023/04/28 06:40:45;;;;;;;;;;;13.70;99.90;;;;;;5036483;28;19919;-68
2023/04/28 06:43:10;;;;;;;;;;;13.80;99.90;;;;;;5038612;28;19936;-68
2023/04/28 06:45:36;;;;;;;;;;;13.80;99.90;;;;;;5043252;28;19959;-69
2023/04/28 06:48:02;;;;;;;;;;;13.80;99.90;;;;;;5037333;28;20361;-69
2023/04/28 06:50:27;;;;;;;;;;;13.80;99.90;;;;;;5036488;28;19920;-68
2023/04/28 06:52:53;;;;;;;;;;;13.90;99.90;;;;;;5042155;28;19920;-68
2023/04/28 06:55:18;;;;;;;;;;;13.80;99.90;;;;;;5038923;28;19960;-68
2023/04/28 06:57:44;;;;;;;;;;;13.90;99.90;;;;;;5043606;28;20315;-68
2023/04/28 07:00:10;;;;;;;;;;;13.80;99.90;;;;;;5036714;28;20254;-67
2023/04/28 07:02:35;;;;;;;;;;;13.80;99.90;;;;;;5036840;28;19935;-67
2023/04/28 07:05:02;;;;;;;;;;;13.80;99.90;;;;;;5044841;28;19916;-65
2023/04/28 07:07:28;;;;;;;;;;;13.80;99.90;;;;;;5034030;28;19913;-68
2023/04/28 07:09:53;;;;;;;;;;;14.00;99.90;;;;;;5049825;28;19917;-68
2023/04/28 07:12:19;;;;;;;;;;;14.00;99.90;;;;;;5034683;28;20385;-68
2023/04/28 07:14:45;;;;;;;;;;;14.00;99.90;;;;;;5049865;28;19913;-69
2023/04/28 07:17:10;;;;;;;;;;;14.00;99.90;;;;;;5038420;28;19921;-68
2023/04/28 07:19:36;;;;;;;;;;;14.00;99.90;;;;;;5042883;28;19966;-68
2023/04/28 07:22:02;;;;;;;;;;;13.90;99.90;;;;;;5037333;28;19913;-68
2023/04/28 07:24:27;;;;;;;;;;;13.90;99.90;;;;;;5037792;28;19921;-68
2023/04/28 07:26:53;;;;;;;;;;;13.90;99.90;;;;;;5044911;28;19942;-68
2023/04/28 07:29:19;;;;;;;;;;;14.00;99.90;;;;;;5037344;28;19948;-68
2023/04/28 07:31:45;;;;;;;;;;;13.90;99.90;;;;;;5043950;28;19924;-68
2023/04/28 07:34:10;;;;;;;;;;;13.90;99.90;;;;;;5038001;28;19914;-68
2023/04/28 07:36:36;;;;;;;;;;;13.90;99.90;;;;;;5043012;28;20035;-68
2023/04/28 07:39:02;;;;;;;;;;;14.10;99.90;;;;;;5039825;28;19924;-68
2023/04/28 07:41:27;;;;;;;;;;;14.20;99.90;;;;;;5043942;28;19998;-68
2023/04/28 07:43:53;;;;;;;;;;;14.20;99.90;;;;;;5053253;28;19972;-69
2023/04/28 07:46:19;;;;;;;;;;;14.20;99.90;;;;;;5043152;28;19921;-69
2023/04/28 07:48:44;;;;;;;;;;;14.30;99.90;;;;;;5039632;28;19913;-69
2023/04/28 07:51:10;;;;;;;;;;;14.10;99.90;;;;;;5051671;28;20549;-68
2023/04/28 07:53:35;;;;;;;;;;;14.20;99.90;;;;;;5040447;28;19995;-69
2023/04/28 07:56:01;;;;;;;;;;;14.40;99.90;;;;;;5043430;28;20365;-66
2023/04/28 07:58:28;;;;;;;;;;;14.40;99.90;;;;;;5047404;28;19917;-69
2023/04/28 08:00:53;;;;;;;;;;;14.40;99.90;;;;;;5039546;28;19925;-68
2023/04/28 08:03:20;;;;;;;;;;;14.30;99.90;;;;;;5052665;28;19912;-69
2023/04/28 08:05:45;;;;;;;;;;;14.50;99.90;;;;;;5039984;28;19917;-69
2023/04/28 08:08:11;;;;;;;;;;;14.70;99.90;;;;;;5042319;28;20395;-69
2023/04/28 08:10:39;;;;;;;;;;;14.60;99.90;;;;;;5047657;28;20313;-67
2023/04/28 08:13:04;;;;;;;;;;;14.60;99.90;;;;;;5043874;28;19949;-68
2023/04/28 08:15:30;;;;;;;;;;;14.60;99.90;;;;;;5044536;28;20002;-69
2023/04/28 08:17:56;;;;;;;;;;;14.50;99.90;;;;;;5041396;28;19912;-68
2023/04/28 08:20:21;;;;;;;;;;;14.50;99.90;;;;;;5038822;28;20338;-68
2023/04/28 08:22:47;;;;;;;;;;;14.50;99.90;;;;;;5047527;28;19913;-69
2023/04/28 08:25:12;;;;;;;;;;;14.60;99.90;;;;;;5031997;28;20007;-68
2023/04/28 08:27:38;;;;;;;;;;;14.60;99.90;;;;;;5047202;28;20008;-67
2023/04/28 08:30:07;;;;;;;;;;;14.90;99.90;;;;;;5039999;28;19913;-68
2023/04/28 08:32:33;;;;;;;;;;;14.60;99.90;;;;;;5039561;28;19924;-67
2023/04/28 08:34:59;;;;;;;;;;;14.60;99.90;;;;;;5048742;28;19913;-68
2023/04/28 08:37:25;;;;;;;;;;;14.40;99.90;;;;;;5047391;28;19921;-67
2023/04/28 08:39:58;;;;;;;;;;;14.30;99.90;;;;;;5039262;28;19984;-68
2023/04/28 08:42:25;;;;;;;;;;;14.20;99.90;;;;;;5047427;28;19913;-69
2023/04/28 08:44:50;;;;;;;;;;;14.10;99.90;;;;;;5039282;28;19967;-68
2023/04/28 08:47:17;;;;;;;;;;;14.10;99.90;;;;;;5050496;28;19940;-68
2023/04/28 08:49:43;;;;;;;;;;;14.00;99.90;;;;;;5038899;28;19958;-68
2023/04/28 08:52:10;;;;;;;;;;;13.90;99.90;;;;;;5040218;28;19955;-67
2023/04/28 08:54:36;;;;;;;;;;;14.00;99.90;;;;;;5045485;28;19913;-66
2023/04/28 08:57:03;;;;;;;;;;;14.00;99.90;;;;;;5041655;28;20063;-66
2023/04/28 08:59:29;;;;;;;;;;;13.90;99.90;;;;;;5044500;28;19912;-67
2023/04/28 09:01:55;;;;;;;;;;;14.00;99.90;;;;;;5044655;28;19913;-67
2023/04/28 09:04:21;;;;;;;;;;;14.00;99.90;;;;;;5041762;28;20288;-68
2023/04/28 09:06:47;;;;;;;;;;;13.90;99.90;;;;;;5037640;28;19913;-67
2023/04/28 09:09:22;;;;;;;;;;;13.70;99.90;;;;;;5050010;28;19916;-68
2023/04/28 09:11:54;;;;;;;;;;;13.70;99.90;;;;;;5037640;28;19924;-68
2023/04/28 09:14:21;;;;;;;;;;;13.80;99.90;;;;;;5041581;28;19917;-68
2023/04/28 09:16:47;;;;;;;;;;;13.60;99.90;;;;;;5036045;28;20343;-68
2023/04/28 09:19:13;;;;;;;;;;;13.60;99.90;;;;;;5041205;28;20389;-68
2023/04/28 09:22:05;;;;;;;;;;;13.70;99.90;;;;;;5045477;28;20368;-68
2023/04/28 09:24:34;;;;;;;;;;;13.70;99.90;;;;;;5044749;28;19913;-68
2023/04/28 09:27:01;;;;;;;;;;;13.60;99.90;;;;;;5036019;28;19913;-68
2023/04/28 09:29:27;;;;;;;;;;;13.80;99.90;;;;;;5035291;28;19920;-68
2023/04/28 09:31:53;;;;;;;;;;;13.80;99.90;;;;;;5044331;28;19914;-69
2023/04/28 09:34:19;;;;;;;;;;;13.80;99.90;;;;;;5040474;28;20361;-67
2023/04/28 09:36:45;;;;;;;;;;;13.80;99.90;;;;;;5036953;28;19921;-67
2023/04/28 09:39:11;;;;;;;;;;;13.70;99.90;;;;;;5039401;28;19968;-68
2023/04/28 09:41:40;;;;;;;;;;;13.70;99.90;;;;;;5044137;28;19917;-68
2023/04/28 09:44:12;;;;;;;;;;;13.70;99.90;;;;;;5040318;28;19921;-67
2023/04/28 09:46:39;;;;;;;;;;;13.60;99.90;;;;;;5043070;28;20265;-69
2023/04/28 09:49:05;;;;;;;;;;;13.70;99.90;;;;;;5040524;28;19944;-67
2023/04/28 09:51:31;;;;;;;;;;;13.70;99.90;;;;;;5043422;28;20376;-67
2023/04/28 09:53:58;;;;;;;;;;;13.60;99.90;;;;;;5043167;28;20384;-67
2023/04/28 09:56:26;;;;;;;;;;;13.80;99.90;;;;;;5040354;28;19928;-67
2023/04/28 09:58:52;;;;;;;;;;;13.70;99.90;;;;;;5050659;28;19913;-67
2023/04/28 10:01:18;;;;;;;;;;;13.80;99.90;;;;;;5040169;28;19913;-68
2023/04/28 10:03:44;;;;;;;;;;;13.90;99.90;;;;;;5035148;28;20000;-68
2023/04/28 10:06:10;;;;;;;;;;;14.00;99.90;;;;;;5039299;28;19913;-68
2023/04/28 10:08:36;;;;;;;;;;;14.10;99.90;;;;;;5043678;28;19999;-68
2023/04/28 10:11:02;;;;;;;;;;;14.10;99.90;;;;;;5037302;28;19913;-68
2023/04/28 10:13:28;;;;;;;;;;;14.30;99.90;;;;;;5038495;28;19913;-68
2023/04/28 10:15:54;;;;;;;;;;;14.30;99.90;;;;;;5049741;28;19925;-68
2023/04/28 10:18:21;;;;;;;;;;;14.30;99.90;;;;;;5038064;28;19923;-68
2023/04/28 10:20:48;;;;;;;;;;;14.50;99.90;;;;;;5045044;28;19913;-68
2023/04/28 10:23:25;;;;;;;;;;;14.70;99.90;;;;;;5038579;28;19917;-67
2023/04/28 10:25:53;;;;;;;;;;;14.70;99.90;;;;;;5037110;28;19920;-68
2023/04/28 10:28:19;;;;;;;;;;;14.60;99.90;;;;;;5037932;28;19924;-67
2023/04/28 10:31:05;;;;;;;;;;;14.80;99.90;;;;;;5044542;28;19913;-66
2023/04/28 10:33:31;;;;;;;;;;;14.60;99.90;;;;;;5042292;28;19919;-68
2023/04/28 10:35:56;;;;;;;;;;;14.50;99.90;;;;;;5038574;28;19917;-67
2023/04/28 10:38:22;;;;;;;;;;;14.60;99.90;;;;;;5037390;28;19913;-66
2023/04/28 10:40:48;;;;;;;;;;;14.30;99.90;;;;;;5041280;28;19913;-67
2023/04/28 10:43:30;;;;;;;;;;;14.40;99.90;;;;;;5037958;28;20265;-68
2023/04/28 10:45:58;;;;;;;;;;;14.40;99.90;;;;;;5038046;28;19916;-68
2023/04/28 10:48:33;;;;;;;;;;;14.30;99.90;;;;;;5037119;28;20317;-68
2023/04/28 10:51:01;;;;;;;;;;;14.20;99.90;;;;;;5046062;28;19913;-68
2023/04/28 10:53:47;;;;;;;;;;;14.30;99.90;;;;;;5033688;28;19912;-69
2023/04/28 10:56:18;;;;;;;;;;;14.60;99.90;;;;;;5038184;28;19917;-67
2023/04/28 10:58:48;;;;;;;;;;;15.30;99.90;;;;;;5043907;28;19920;-68
2023/04/28 11:01:33;;;;;;;;;;;15.50;99.90;;;;;;5038182;28;20357;-67
2023/04/28 11:04:16;;;;;;;;;;;15.70;99.90;;;;;;5046170;28;19913;-68
2023/04/28 11:06:43;;;;;;;;;;;15.50;99.90;;;;;;5035645;28;19913;-68
2023/04/28 11:09:11;;;;;;;;;;;15.60;99.90;;;;;;5031620;28;19920;-67
2023/04/28 11:11:37;;;;;;;;;;;15.40;99.90;;;;;;5039226;28;19917;-68
2023/04/28 11:14:16;;;;;;;;;;;15.20;99.90;;;;;;5039123;28;19913;-67
2023/04/28 11:17:01;;;;;;;;;;;15.10;99.90;;;;;;5047794;28;20456;-67
2023/04/28 11:19:28;;;;;;;;;;;15.00;99.90;;;;;;5037283;28;19912;-68
2023/04/28 11:21:55;;;;;;;;;;;15.10;99.90;;;;;;5046700;28;19917;-68
2023/04/28 11:24:21;;;;;;;;;;;15.30;99.90;;;;;;5043170;28;20494;-67
2023/04/28 11:26:47;;;;;;;;;;;15.70;99.90;;;;;;5038593;28;19944;-67
2023/04/28 11:29:13;;;;;;;;;;;16.00;99.90;;;;;;5041530;28;19913;-68
2023/04/28 11:31:40;;;;;;;;;;;15.70;99.90;;;;;;5047103;28;19966;-67
2023/04/28 11:34:10;;;;;;;;;;;15.80;99.90;;;;;;5051020;28;20004;-66
2023/04/28 11:36:37;;;;;;;;;;;16.00;99.90;;;;;;5036929;28;19928;-67
2023/04/28 11:39:06;;;;;;;;;;;15.90;99.90;;;;;;5051840;28;19913;-67
2023/04/28 11:41:43;;;;;;;;;;;15.80;99.90;;;;;;5039208;28;19917;-66
2023/04/28 11:44:09;;;;;;;;;;;15.70;99.90;;;;;;5041548;28;19925;-68
2023/04/28 11:46:35;;;;;;;;;;;15.60;99.90;;;;;;5046375;28;19919;-68
2023/04/28 11:49:04;;;;;;;;;;;15.80;99.90;;;;;;5045061;28;19913;-67
2023/04/28 11:51:35;;;;;;;;;;;16.10;99.90;;;;;;5045727;28;19924;-68
2023/04/28 11:54:01;;;;;;;;;;;16.10;99.90;;;;;;5044833;28;19913;-68
2023/04/28 11:56:27;;;;;;;;;;;16.00;99.90;;;;;;5044338;28;19921;-68
2023/04/28 11:59:19;;;;;;;;;;;15.90;99.90;;;;;;5040678;28;20379;-68
2023/04/28 12:01:48;;;;;;;;;;;16.00;99.90;;;;;;5037471;28;20286;-68
2023/04/28 12:04:14;;;;;;;;;;;15.90;99.90;;;;;;5050996;28;19920;-68
2023/04/28 12:06:40;;;;;;;;;;;15.90;99.90;;;;;;5039485;28;19936;-67
2023/04/28 12:09:20;;;;;;;;;;;15.80;99.90;;;;;;5049569;28;19966;-66
2023/04/28 12:12:12;;;;;;;;;;;16.00;99.90;;;;;;5038598;28;19920;-67
2023/04/28 12:14:53;;;;;;;;;;;15.80;99.90;;;;;;5043949;28;19920;-67
2023/04/28 12:17:28;;;;;;;;;;;15.70;99.90;;;;;;5042585;28;20381;-67
2023/04/28 12:19:55;;;;;;;;;;;15.50;99.90;;;;;;5037146;28;19917;-68
2023/04/28 12:22:21;;;;;;;;;;;15.60;99.90;;;;;;5050982;28;19920;-68
2023/04/28 12:25:01;;;;;;;;;;;15.90;99.90;;;;;;5037966;28;19913;-67
2023/04/28 12:27:28;;;;;;;;;;;16.20;99.90;;;;;;5044003;28;20277;-67
2023/04/28 12:29:55;;;;;;;;;;;17.00;99.90;;;;;;5036987;28;19920;-67
2023/04/28 12:32:36;;;;;;;;;;;17.70;99.90;;;;;;5050036;28;20381;-67
2023/04/28 12:35:01;;;;;;;;;;;17.90;99.90;;;;;;5040652;28;19913;-68
2023/04/28 12:37:27;;;;;;;;;;;18.30;99.90;;;;;;5040481;28;19928;-67
2023/04/28 12:39:53;;;;;;;;;;;18.60;99.90;;;;;;5046059;28;19913;-67
2023/04/28 12:42:19;;;;;;;;;;;19.10;99.90;;;;;;5039413;28;20412;-67
2023/04/28 12:44:45;;;;;;;;;;;19.30;99.90;;;;;;5048965;28;19921;-68
2023/04/28 12:47:11;;;;;;;;;;;19.50;99.90;;;;;;5041229;28;20361;-67
2023/04/28 12:49:37;;;;;;;;;;;19.30;99.90;;;;;;5045225;28;19920;-68
2023/04/28 12:52:03;;;;;;;;;;;18.60;99.90;;;;;;5041702;28;20373;-67
2023/04/28 12:54:28;;;;;;;;;;;18.50;99.90;;;;;;5044063;28;20008;-68
2023/04/28 12:56:54;;;;;;;;;;;18.50;99.90;;;;;;5036201;28;20015;-67
2023/04/28 12:59:20;;;;;;;;;;;18.60;99.90;;;;;;5049381;28;20384;-67
2023/04/28 13:01:46;;;;;;;;;;;19.30;99.90;;;;;;5038626;28;19916;-67
2023/04/28 13:04:12;;;;;;;;;;;19.70;99.90;;;;;;5040585;28;20365;-67
2023/04/28 13:06:39;;;;;;;;;;;20.10;99.90;;;;;;5045246;28;20010;-67
2023/04/28 13:09:05;;;;;;;;;;;20.40;99.90;;;;;;5041122;28;20022;-67
2023/04/28 13:11:30;;;;;;;;;;;20.40;99.90;;;;;;5043606;28;19919;-67
2023/04/28 13:13:56;;;;;;;;;;;20.10;99.90;;;;;;5044175;28;19913;-66
2023/04/28 13:16:24;;;;;;;;;;;19.50;99.90;;;;;;5041153;28;19927;-67
2023/04/28 13:18:50;;;;;;;;;;;19.50;99.90;;;;;;5036979;28;19913;-67
2023/04/28 13:21:16;;;;;;;;;;;19.50;99.90;;;;;;5049245;28;19913;-68
2023/04/28 13:23:41;;;;;;;;;;;19.80;99.90;;;;;;5037925;28;19919;-69
2023/04/28 13:26:07;;;;;;;;;;;20.40;99.90;;;;;;5049300;28;19920;-66
2023/04/28 13:28:33;;;;;;;;;;;20.10;99.90;;;;;;5038885;28;19913;-67
2023/04/28 13:30:58;;;;;;;;;;;19.40;99.90;;;;;;5047603;28;20396;-67
2023/04/28 13:33:29;;;;;;;;;;;19.20;99.90;;;;;;5033026;28;20000;-67
2023/04/28 13:35:58;;;;;;;;;;;20.00;99.90;;;;;;5043980;28;19921;-66
2023/04/28 13:38:25;;;;;;;;;;;20.10;99.90;;;;;;5040107;28;20373;-66
2023/04/28 13:40:50;;;;;;;;;;;20.10;99.90;;;;;;5047302;28;19920;-67
2023/04/28 13:43:16;;;;;;;;;;;21.30;99.90;;;;;;5038258;28;19929;-67
2023/04/28 13:45:42;;;;;;;;;;;21.90;99.90;;;;;;5045169;28;19944;-66
2023/04/28 13:48:07;;;;;;;;;;;22.00;99.90;;;;;;5038517;28;19919;-70
2023/04/28 13:50:33;;;;;;;;;;;22.60;99.90;;;;;;5051046;28;19913;-67
2023/04/28 13:53:00;;;;;;;;;;;22.60;99.90;;;;;;5033561;28;21435;-66
2023/04/28 13:55:29;;;;;;;;;;;22.30;99.90;;;;;;5047351;28;19912;-66
2023/04/28 13:57:55;;;;;;;;;;;20.90;99.90;;;;;;5043510;28;20381;-67
2023/04/28 14:00:21;;;;;;;;;;;20.20;99.90;;;;;;5040055;28;20375;-67
2023/04/28 14:02:48;;;;;;;;;;;19.60;99.90;;;;;;5036126;28;20051;-67
2023/04/28 14:05:15;;;;;;;;;;;18.30;99.90;;;;;;5048303;28;19975;-67
2023/04/28 14:07:41;;;;;;;;;;;18.20;99.90;;;;;;5036521;28;19959;-67
2023/04/28 14:10:07;;;;;;;;;;;18.30;99.90;;;;;;5048209;28;19913;-67
2023/04/28 14:12:32;;;;;;;;;;;19.50;99.90;;;;;;5036904;28;19919;-67
2023/04/28 14:14:58;;;;;;;;;;;20.50;99.90;;;;;;5050438;28;19982;-67